Time;durP1;ratioP1;P1;durP2;ratioP2;P2;SDS_P1;SDS_P2;PMS_P1;PMS_P2;Temp;Humidity;BMP_temperature;BMP_pressure;BME280_temperature;BME280_humidity;BME280_pressure;Samples;Min_cycle;Max_cycle;Signal;HPM_P1;HPM_P2
2023/08/07 00:00:23;;;;;;;1.35;0.85;;;14.40;99.90;;;;;;5045448;28;20044;-86
2023/08/07 00:02:49;;;;;;;3.42;0.55;;;13.00;99.90;;;;;;5045067;28;20049;-87
2023/08/07 00:05:16;;;;;;;0.57;0.40;;;13.10;99.90;;;;;;5028614;28;20139;-86
2023/08/07 00:07:43;;;;;;;0.47;0.43;;;13.20;99.90;;;;;;5045311;28;20072;-87
2023/08/07 00:10:09;;;;;;;0.00;0.00;;;13.20;99.90;;;;;;5029078;28;20059;-87
2023/08/07 00:12:35;;;;;;;0.13;0.10;;;13.60;99.90;;;;;;5029420;28;20053;-87
2023/08/07 00:15:01;;;;;;;0.10;0.10;;;13.20;99.90;;;;;;5028513;28;20037;-87
2023/08/07 00:17:27;;;;;;;0.00;0.00;;;13.10;99.90;;;;;;5044814;28;20053;-86
2023/08/07 00:19:53;;;;;;;0.10;0.10;;;13.10;99.90;;;;;;5027888;28;20041;-86
2023/08/07 00:22:18;;;;;;;0.57;0.38;;;14.30;99.90;;;;;;5044660;28;20136;-86
2023/08/07 00:24:44;;;;;;;0.00;0.00;;;12.90;99.90;;;;;;5027880;28;20059;-86
2023/08/07 00:27:10;;;;;;;0.00;0.00;;;12.90;99.90;;;;;;5027947;28;20047;-86
2023/08/07 00:29:36;;;;;;;0.00;0.00;;;12.90;99.90;;;;;;5045161;28;20053;-86
2023/08/07 00:32:03;;;;;;;0.50;0.43;;;13.00;99.90;;;;;;5030892;28;20058;-86
2023/08/07 00:34:29;;;;;;;0.00;0.00;;;12.90;99.90;;;;;;5026168;28;20060;-86
2023/08/07 00:36:54;;;;;;;0.55;0.20;;;12.90;99.90;;;;;;5028386;28;20053;-86
2023/08/07 00:39:20;;;;;;;0.00;0.00;;;13.00;99.90;;;;;;5027916;28;20045;-86
2023/08/07 00:41:47;;;;;;;1.42;1.02;;;13.00;99.90;;;;;;5012486;28;20060;-86
2023/08/07 00:44:13;;;;;;;0.00;0.00;;;13.80;99.90;;;;;;5045134;28;20037;-86
2023/08/07 00:46:39;;;;;;;0.10;0.10;;;13.00;99.90;;;;;;5028578;28;20049;-85
2023/08/07 00:49:06;;;;;;;0.05;0.05;;;13.00;99.90;;;;;;5028226;28;20049;-84
2023/08/07 00:51:33;;;;;;;0.20;0.10;;;13.00;99.90;;;;;;5028862;28;20047;-85
2023/08/07 00:54:00;;;;;;;0.00;0.00;;;12.90;99.90;;;;;;5045072;28;20071;-85
2023/08/07 00:56:26;;;;;;;0.03;0.03;;;12.90;99.90;;;;;;5046322;28;20534;-84
2023/08/07 00:58:53;;;;;;;0.08;0.08;;;12.90;99.90;;;;;;5044619;28;20084;-84
2023/08/07 01:01:19;;;;;;;0.00;0.00;;;12.80;99.90;;;;;;5044681;28;20164;-84
2023/08/07 01:03:44;;;;;;;0.40;0.40;;;12.80;99.90;;;;;;5046052;28;20461;-84
2023/08/07 01:06:10;;;;;;;0.05;0.05;;;12.80;99.90;;;;;;5028757;28;20412;-84
2023/08/07 01:08:36;;;;;;;0.40;0.40;;;12.80;99.90;;;;;;5046236;28;20128;-84
2023/08/07 01:11:31;;;;;;;0.80;0.32;;;14.10;99.90;;;;;;5044720;28;20051;-84
2023/08/07 01:14:18;;;;;;;0.00;0.00;;;13.00;99.90;;;;;;5028086;28;20044;-84
2023/08/07 01:17:03;;;;;;;0.85;0.77;;;13.00;99.90;;;;;;5046228;28;20163;-84
2023/08/07 01:19:30;;;;;;;0.00;0.00;;;13.00;99.90;;;;;;5044634;28;20053;-84
2023/08/07 01:22:06;;;;;;;1.95;0.73;;;12.90;99.90;;;;;;5044842;28;20403;-84
2023/08/07 01:24:32;;;;;;;0.20;0.03;;;12.90;99.90;;;;;;5045948;28;20056;-84
2023/08/07 01:27:07;;;;;;;2.50;0.60;;;12.90;99.90;;;;;;5046058;28;20053;-84
2023/08/07 01:29:43;;;;;;;0.30;0.30;;;12.80;99.90;;;;;;5044377;28;20131;-84
2023/08/07 01:32:09;;;;;;;0.35;0.35;;;12.80;99.90;;;;;;5044492;28;20407;-84
2023/08/07 01:34:36;;;;;;;0.00;0.00;;;12.80;99.90;;;;;;5044149;28;20061;-84
2023/08/07 01:37:04;;;;;;;0.35;0.28;;;12.80;99.90;;;;;;5044149;28;20064;-84
2023/08/07 01:39:30;;;;;;;0.00;0.00;;;12.90;99.90;;;;;;5045969;28;20044;-84
2023/08/07 01:41:56;;;;;;;0.00;0.00;;;12.90;99.90;;;;;;5044231;28;20656;-84
2023/08/07 01:44:22;;;;;;;12.32;0.45;;;12.90;99.90;;;;;;5044600;28;20088;-84
2023/08/07 01:46:47;;;;;;;0.10;0.10;;;14.30;99.90;;;;;;5045817;28;20491;-84
2023/08/07 01:49:13;;;;;;;0.00;0.00;;;12.80;99.90;;;;;;5044153;28;20380;-84
2023/08/07 01:51:39;;;;;;;0.40;0.22;;;12.90;99.90;;;;;;5048093;28;20506;-84
2023/08/07 01:54:04;;;;;;;1.00;0.35;;;12.80;99.90;;;;;;5048042;28;20057;-84
2023/08/07 01:56:30;;;;;;;0.10;0.10;;;12.80;99.90;;;;;;5049866;28;20492;-84
2023/08/07 01:58:55;;;;;;;0.30;0.30;;;14.30;99.90;;;;;;5049372;28;20518;-84
2023/08/07 02:01:21;;;;;;;0.00;0.00;;;12.90;99.90;;;;;;5048052;28;20199;-84
2023/08/07 02:03:47;;;;;;;0.00;0.00;;;12.90;99.90;;;;;;5047395;28;20444;-84
2023/08/07 02:06:12;;;;;;;0.20;0.15;;;13.50;99.90;;;;;;5047554;28;20138;-84
2023/08/07 02:08:38;;;;;;;0.00;0.00;;;13.00;99.90;;;;;;5047347;28;20056;-84
2023/08/07 02:11:04;;;;;;;0.20;0.20;;;13.00;99.90;;;;;;5047614;28;20608;-84
2023/08/07 02:13:29;;;;;;;0.30;0.30;;;13.00;99.90;;;;;;5047397;28;20084;-84
2023/08/07 02:15:55;;;;;;;0.00;0.00;;;13.00;99.90;;;;;;5047251;28;20081;-84
2023/08/07 02:18:20;;;;;;;1.75;0.40;;;12.90;99.90;;;;;;5047303;28;20055;-85
2023/08/07 02:20:46;;;;;;;0.00;0.00;;;12.90;99.90;;;;;;5048106;28;20472;-84
2023/08/07 02:23:12;;;;;;;0.32;0.30;;;12.90;99.90;;;;;;5049168;28;20056;-84
2023/08/07 02:25:38;;;;;;;1.23;0.55;;;12.90;99.90;;;;;;5047184;28;20151;-84
2023/08/07 02:28:04;;;;;;;0.00;0.00;;;13.00;99.90;;;;;;5046595;28;20064;-84
2023/08/07 02:30:31;;;;;;;0.10;0.10;;;12.90;99.90;;;;;;5047146;28;20049;-84
2023/08/07 02:32:56;;;;;;;0.00;0.00;;;12.90;99.90;;;;;;5048491;28;20052;-84
2023/08/07 02:35:22;;;;;;;0.10;0.10;;;13.00;99.90;;;;;;5029971;28;20056;-84
2023/08/07 02:37:47;;;;;;;0.20;0.20;;;13.00;99.90;;;;;;5046785;28;21212;-84
2023/08/07 02:40:15;;;;;;;0.00;0.00;;;13.00;99.90;;;;;;5047088;28;20045;-84
2023/08/07 02:42:42;;;;;;;0.20;0.20;;;13.10;99.90;;;;;;5046920;28;20075;-84
2023/08/07 02:45:08;;;;;;;0.10;0.10;;;13.10;99.90;;;;;;5046607;28;20053;-84
2023/08/07 02:47:33;;;;;;;2.08;0.65;;;13.10;99.90;;;;;;5046827;28;20499;-84
2023/08/07 02:49:59;;;;;;;0.20;0.20;;;14.40;99.90;;;;;;5046510;28;20130;-84
2023/08/07 02:52:25;;;;;;;0.00;0.00;;;13.20;99.90;;;;;;5046870;28;20041;-84
2023/08/07 02:54:50;;;;;;;0.65;0.20;;;13.30;99.90;;;;;;5046084;28;20056;-84
2023/08/07 02:57:16;;;;;;;0.40;0.22;;;13.30;99.90;;;;;;5046501;28;20033;-84
2023/08/07 02:59:42;;;;;;;0.45;0.32;;;13.30;99.90;;;;;;5046149;28;20132;-84
2023/08/07 03:02:07;;;;;;;0.03;0.03;;;13.20;99.90;;;;;;5046827;28;20110;-84
2023/08/07 03:04:33;;;;;;;0.00;0.00;;;13.10;99.90;;;;;;5029522;28;20549;-84
2023/08/07 03:07:00;;;;;;;0.00;0.00;;;13.20;99.90;;;;;;5029846;28;20043;-84
2023/08/07 03:09:25;;;;;;;0.00;0.00;;;13.30;99.90;;;;;;5029753;28;20929;-84
2023/08/07 03:11:51;;;;;;;0.20;0.10;;;13.30;99.90;;;;;;5029589;28;20106;-86
2023/08/07 03:14:16;;;;;;;0.00;0.00;;;13.40;99.90;;;;;;5047307;28;20049;-85
2023/08/07 03:16:42;;;;;;;0.77;0.45;;;13.40;99.90;;;;;;5046130;28;20471;-85
2023/08/07 03:19:08;;;;;;;0.13;0.10;;;13.40;99.90;;;;;;5047606;28;20053;-87
2023/08/07 03:21:33;;;;;;;0.10;0.10;;;13.40;99.90;;;;;;5048407;28;20873;-87
2023/08/07 03:23:59;;;;;;;0.00;0.00;;;13.50;99.90;;;;;;5048399;28;20116;-87
2023/08/07 03:26:25;;;;;;;1.17;0.25;;;13.90;99.90;;;;;;5046791;28;20053;-87
2023/08/07 03:28:50;;;;;;;0.03;0.03;;;13.50;99.90;;;;;;5046880;28;20120;-87
2023/08/07 03:31:16;;;;;;;0.28;0.20;;;14.60;99.90;;;;;;5047098;28;20084;-88
2023/08/07 03:33:42;;;;;;;0.00;0.00;;;13.40;99.90;;;;;;5046521;28;20095;-88
2023/08/07 03:36:09;;;;;;;0.30;0.22;;;14.30;99.90;;;;;;5046681;28;20384;-87
2023/08/07 03:38:34;;;;;;;0.65;0.52;;;13.40;99.90;;;;;;5048213;28;20053;-87
2023/08/07 03:41:00;;;;;;;0.00;0.00;;;13.30;99.90;;;;;;5047666;28;20063;-87
2023/08/07 03:43:26;;;;;;;0.43;0.32;;;13.90;99.90;;;;;;5030010;28;20238;-88
2023/08/07 03:45:59;;;;;;;1.63;0.77;;;13.50;99.90;;;;;;5046515;28;20056;-87
2023/08/07 03:48:24;;;;;;;0.00;0.00;;;13.10;99.90;;;;;;5046492;28;20049;-88
2023/08/07 03:50:50;;;;;;;0.00;0.00;;;13.20;99.90;;;;;;5046431;28;20056;-87
2023/08/07 03:53:16;;;;;;;0.00;0.00;;;14.50;99.90;;;;;;5030608;28;20053;-87
2023/08/07 03:55:41;;;;;;;0.00;0.00;;;13.20;99.90;;;;;;5048162;28;20127;-87
2023/08/07 03:58:08;;;;;;;1.05;0.77;;;13.50;99.90;;;;;;5046045;28;20049;-87
2023/08/07 04:00:33;;;;;;;0.30;0.30;;;13.60;99.90;;;;;;5046948;28;20052;-87
2023/08/07 04:02:59;;;;;;;0.00;0.00;;;13.20;99.90;;;;;;5046223;28;20037;-87
2023/08/07 04:05:25;;;;;;;0.30;0.30;;;13.20;99.90;;;;;;5029794;28;20105;-87
2023/08/07 04:07:50;;;;;;;0.00;0.00;;;13.30;99.90;;;;;;5046371;28;20130;-87
2023/08/07 04:10:16;;;;;;;0.00;0.00;;;13.40;99.90;;;;;;5047454;28;20056;-87
2023/08/07 04:12:42;;;;;;;0.00;0.00;;;13.50;99.90;;;;;;5047537;28;20077;-88
2023/08/07 04:15:09;;;;;;;0.90;0.90;;;13.50;99.90;;;;;;5045594;28;20049;-87
2023/08/07 04:17:36;;;;;;;0.20;0.00;;;13.60;99.90;;;;;;5045969;28;20124;-87
2023/08/07 04:20:03;;;;;;;0.00;0.00;;;13.60;99.90;;;;;;5047357;28;20053;-87
2023/08/07 04:22:29;;;;;;;0.28;0.28;;;13.70;99.90;;;;;;5047161;28;20052;-87
2023/08/07 04:24:54;;;;;;;2.15;0.22;;;13.70;99.90;;;;;;5047305;28;20056;-87
2023/08/07 04:27:20;;;;;;;0.43;0.30;;;13.70;99.90;;;;;;5045490;28;20080;-87
2023/08/07 04:29:46;;;;;;;0.22;0.22;;;13.70;99.90;;;;;;5045539;28;20053;-87
2023/08/07 04:32:11;;;;;;;0.00;0.00;;;13.70;99.90;;;;;;5045101;28;20128;-88
2023/08/07 04:34:37;;;;;;;0.00;0.00;;;13.70;99.90;;;;;;5043823;28;20065;-87
2023/08/07 04:37:03;;;;;;;0.00;0.00;;;13.80;99.90;;;;;;5042798;28;20126;-87
2023/08/07 04:39:28;;;;;;;0.00;0.00;;;13.80;99.90;;;;;;5044028;28;20056;-87
2023/08/07 04:41:54;;;;;;;2.45;1.05;;;14.10;99.90;;;;;;5028263;28;21046;-87
2023/08/07 04:44:20;;;;;;;1.27;0.43;;;13.70;99.90;;;;;;5045235;28;20119;-87
2023/08/07 04:46:45;;;;;;;0.10;0.10;;;13.70;99.90;;;;;;5029240;28;20511;-87
2023/08/07 04:49:11;;;;;;;0.00;0.00;;;13.60;99.90;;;;;;5046668;28;20069;-88
2023/08/07 04:51:36;;;;;;;0.00;0.00;;;14.50;99.90;;;;;;5045746;28;20053;-88
2023/08/07 04:54:02;;;;;;;0.20;0.17;;;13.70;99.90;;;;;;5045942;28;20056;-88
2023/08/07 04:56:28;;;;;;;0.10;0.10;;;13.50;99.90;;;;;;5045555;28;20411;-87
2023/08/07 04:58:54;;;;;;;0.55;0.20;;;13.50;99.90;;;;;;5029163;28;20586;-87
2023/08/07 05:01:19;;;;;;;0.00;0.00;;;13.50;99.90;;;;;;5045166;28;20470;-87
2023/08/07 05:03:51;;;;;;;0.00;0.00;;;13.60;99.90;;;;;;5045208;28;20045;-87
2023/08/07 05:06:20;;;;;;;0.00;0.00;;;13.80;99.90;;;;;;5045719;28;20384;-87
2023/08/07 05:08:46;;;;;;;0.10;0.08;;;14.00;99.90;;;;;;5046225;28;20041;-87
2023/08/07 05:11:11;;;;;;;0.00;0.00;;;14.10;99.90;;;;;;5047084;28;20052;-87
2023/08/07 05:13:37;;;;;;;0.22;0.22;;;14.10;99.90;;;;;;5046989;28;20514;-87
2023/08/07 05:16:03;;;;;;;0.00;0.00;;;15.20;99.90;;;;;;5031312;28;20045;-88
2023/08/07 05:18:29;;;;;;;0.30;0.20;;;13.80;99.90;;;;;;5047492;28;20057;-87
2023/08/07 05:20:57;;;;;;;0.85;0.40;;;14.20;99.90;;;;;;5047923;28;20060;-88
2023/08/07 05:23:34;;;;;;;1.85;0.57;;;14.80;99.90;;;;;;5046620;28;20089;-87
2023/08/07 05:26:00;;;;;;;0.15;0.15;;;14.40;99.90;;;;;;5049377;28;20074;-87
2023/08/07 05:28:29;;;;;;;1.85;1.45;;;14.30;99.90;;;;;;5033136;28;20045;-87
2023/08/07 05:30:54;;;;;;;0.10;0.10;;;14.40;99.90;;;;;;5049451;28;20057;-88
2023/08/07 05:33:20;;;;;;;0.65;0.40;;;14.50;99.90;;;;;;5032078;28;20049;-87
2023/08/07 05:35:46;;;;;;;0.35;0.35;;;14.50;99.90;;;;;;5045754;28;20057;-87
2023/08/07 05:38:11;;;;;;;0.20;0.20;;;15.30;99.90;;;;;;5045559;28;20047;-87
2023/08/07 05:40:37;;;;;;;0.00;0.00;;;14.50;99.90;;;;;;5029321;28;20049;-88
2023/08/07 05:43:03;;;;;;;0.10;0.10;;;14.50;99.90;;;;;;5045760;28;20045;-88
2023/08/07 05:45:28;;;;;;;0.38;0.35;;;14.50;99.90;;;;;;5045483;28;20033;-87
2023/08/07 05:47:54;;;;;;;1.27;0.73;;;14.80;99.90;;;;;;5028815;28;20049;-87
2023/08/07 05:50:20;;;;;;;4.55;1.75;;;14.50;99.90;;;;;;5028475;28;20090;-87
2023/08/07 05:52:45;;;;;;;0.03;0.03;;;15.30;99.90;;;;;;5044902;28;20099;-87
2023/08/07 05:55:11;;;;;;;0.45;0.45;;;14.50;99.90;;;;;;5027976;28;20131;-87
2023/08/07 05:57:37;;;;;;;0.65;0.65;;;15.20;99.90;;;;;;5028327;28;20041;-87
2023/08/07 06:00:03;;;;;;;0.10;0.10;;;14.60;99.90;;;;;;5028489;28;20045;-87
2023/08/07 06:02:29;;;;;;;0.25;0.25;;;14.60;99.90;;;;;;5044900;28;20049;-87
2023/08/07 06:04:55;;;;;;;0.00;0.00;;;15.20;99.90;;;;;;5045152;28;20045;-87
2023/08/07 06:07:20;;;;;;;1.55;1.45;;;15.10;99.90;;;;;;5046767;28;20548;-87
2023/08/07 06:09:46;;;;;;;0.10;0.10;;;16.80;99.90;;;;;;5028514;28;20428;-87
2023/08/07 06:12:12;;;;;;;0.22;0.20;;;15.70;99.90;;;;;;5028318;28;20045;-87
2023/08/07 06:14:38;;;;;;;0.28;0.25;;;15.50;99.90;;;;;;5028147;28;20488;-87
2023/08/07 06:17:04;;;;;;;5.43;2.00;;;16.40;99.90;;;;;;5044769;28;20083;-86
2023/08/07 06:19:29;;;;;;;0.28;0.28;;;15.50;99.90;;;;;;5044866;28;20475;-87
2023/08/07 06:21:55;;;;;;;0.20;0.10;;;16.30;99.90;;;;;;5028095;28;20045;-87
2023/08/07 06:24:21;;;;;;;7.43;1.45;;;15.20;91.70;;;;;;5027563;28;20128;-87
2023/08/07 06:26:47;;;;;;;0.38;0.30;;;15.00;79.80;;;;;;5027290;28;20135;-86
2023/08/07 06:29:13;;;;;;;1.08;0.93;;;15.80;50.80;;;;;;5042559;28;20056;-87
2023/08/07 06:31:38;;;;;;;0.00;0.00;;;14.70;99.90;;;;;;5042740;28;20392;-87
2023/08/07 06:34:04;;;;;;;0.00;0.00;;;14.60;99.90;;;;;;5026239;28;20136;-86
2023/08/07 06:36:30;;;;;;;3.25;2.45;;;14.60;90.80;;;;;;5042179;28;20095;-87
2023/08/07 06:38:55;;;;;;;0.65;0.65;;;14.60;94.50;;;;;;5026831;28;20080;-87
2023/08/07 06:41:21;;;;;;;6.90;1.67;;;14.50;96.00;;;;;;5042947;28;20496;-87
2023/08/07 06:43:47;;;;;;;1.08;0.10;;;14.50;99.90;;;;;;5044693;28;20114;-87
2023/08/07 06:46:12;;;;;;;0.68;0.25;;;15.80;99.90;;;;;;5043662;28;20056;-86
2023/08/07 06:48:38;;;;;;;0.00;0.00;;;14.80;99.90;;;;;;5043600;28;20297;-89
2023/08/07 06:51:04;;;;;;;0.00;0.00;;;15.10;99.90;;;;;;5043044;28;20439;-89
2023/08/07 06:53:29;;;;;;;0.32;0.30;;;15.30;99.90;;;;;;5044992;28;20045;-90
2023/08/07 06:55:55;;;;;;;0.77;0.47;;;15.40;99.90;;;;;;5043349;28;20052;-87
2023/08/07 06:58:21;;;;;;;0.55;0.50;;;15.60;1.00;;;;;;5045105;28;20064;-88
2023/08/07 07:00:46;;;;;;;1.10;0.45;;;15.40;99.90;;;;;;5045738;28;20052;-87
2023/08/07 07:03:12;;;;;;;0.00;0.00;;;15.10;99.90;;;;;;5045824;28;20063;-87
2023/08/07 07:05:38;;;;;;;0.20;0.20;;;14.80;1.00;;;;;;5045650;28;20049;-87
2023/08/07 07:08:04;;;;;;;0.00;0.00;;;15.10;99.90;;;;;;5045887;28;20574;-86
2023/08/07 07:10:30;;;;;;;0.85;0.60;;;14.70;99.90;;;;;;5044522;28;20052;-86
2023/08/07 07:12:56;;;;;;;0.10;0.10;;;14.80;99.90;;;;;;5045315;28;20043;-87
2023/08/07 07:15:21;;;;;;;0.52;0.50;;;16.20;66.10;;;;;;5043893;28;20039;-87
2023/08/07 07:17:47;;;;;;;8.75;2.17;;;15.30;1.00;;;;;;5043599;28;20059;-87
2023/08/07 07:20:13;;;;;;;0.00;0.00;;;15.40;1.00;;;;;;5027272;28;20048;-87
2023/08/07 07:22:39;;;;;;;0.25;0.10;;;15.20;99.90;;;;;;5027449;28;20080;-87
2023/08/07 07:25:05;;;;;;;0.00;0.00;;;14.90;1.00;;;;;;5043416;28;20077;-87
2023/08/07 07:27:31;;;;;;;0.70;0.52;;;14.50;99.90;;;;;;5045987;28;20041;-87
2023/08/07 07:29:56;;;;;;;0.00;0.00;;;15.40;99.90;;;;;;5030793;28;20029;-88
2023/08/07 07:32:23;;;;;;;0.00;0.00;;;14.00;99.90;;;;;;5063932;28;20036;-87
2023/08/07 07:34:48;;;;;;;0.08;0.03;;;14.00;99.90;;;;;;5049072;28;20076;-87
2023/08/07 07:37:16;;;;;;;0.25;0.20;;;14.30;99.90;;;;;;5050801;28;20056;-87
2023/08/07 07:39:42;;;;;;;1.50;0.65;;;15.50;99.90;;;;;;5051384;28;20029;-87
2023/08/07 07:42:08;;;;;;;0.98;0.85;;;14.90;99.90;;;;;;5049669;28;20131;-87
2023/08/07 07:44:36;;;;;;;0.45;0.40;;;14.70;99.90;;;;;;5048532;28;20025;-87
2023/08/07 07:47:02;;;;;;;1.45;0.75;;;14.50;99.90;;;;;;5048506;28;20041;-87
2023/08/07 07:49:28;;;;;;;0.65;0.40;;;14.30;99.90;;;;;;5057407;28;20342;-87
2023/08/07 07:51:53;;;;;;;0.00;0.00;;;14.20;99.90;;;;;;5044120;28;20045;-87
2023/08/07 07:54:19;;;;;;;4.75;2.38;;;14.30;99.90;;;;;;5043152;28;20055;-87
2023/08/07 07:56:45;;;;;;;0.75;0.63;;;14.40;99.90;;;;;;5042560;28;20041;-87
2023/08/07 07:59:12;;;;;;;0.38;0.15;;;14.50;99.90;;;;;;5041819;28;20098;-86
2023/08/07 08:01:38;;;;;;;0.52;0.32;;;14.60;99.90;;;;;;5024936;28;20087;-87
2023/08/07 08:04:04;;;;;;;1.80;1.20;;;14.60;99.90;;;;;;5042943;28;20049;-86
2023/08/07 08:06:30;;;;;;;0.40;0.17;;;14.70;1.00;;;;;;5041792;28;20082;-87
2023/08/07 08:08:56;;;;;;;0.90;0.47;;;14.80;99.90;;;;;;5041828;28;20120;-86
2023/08/07 08:11:22;;;;;;;0.10;0.05;;;15.20;99.90;;;;;;5041325;28;20120;-87
2023/08/07 08:13:48;;;;;;;0.15;0.10;;;15.60;99.90;;;;;;5026138;28;20053;-87
2023/08/07 08:16:15;;;;;;;0.65;0.28;;;15.40;99.90;;;;;;5026005;28;20041;-88
2023/08/07 08:18:41;;;;;;;1.55;1.45;;;15.00;97.70;;;;;;5038048;28;20110;-87
2023/08/07 08:21:06;;;;;;;3.40;0.10;;;15.10;99.90;;;;;;5043122;28;20049;-87
2023/08/07 08:23:32;;;;;;;3.40;1.08;;;15.50;99.90;;;;;;5041895;28;20041;-87
2023/08/07 08:25:58;;;;;;;1.20;1.10;;;14.20;99.90;;;;;;5041143;28;20072;-87
2023/08/07 08:28:23;;;;;;;0.00;0.00;;;14.20;1.00;;;;;;5040908;28;20414;-87
2023/08/07 08:30:49;;;;;;;0.85;0.75;;;14.10;1.00;;;;;;5040431;28;20114;-87
2023/08/07 08:33:15;;;;;;;0.32;0.30;;;14.40;13.60;;;;;;5040725;28;20049;-86
2023/08/07 08:35:41;;;;;;;0.77;0.40;;;14.00;95.30;;;;;;5024881;28;20503;-86
2023/08/07 08:38:07;;;;;;;0.00;0.00;;;14.10;99.90;;;;;;5040234;28;20055;-87
2023/08/07 08:40:34;;;;;;;0.00;0.00;;;14.30;99.90;;;;;;5023473;28;20045;-87
2023/08/07 08:43:00;;;;;;;1.17;0.95;;;15.10;99.90;;;;;;5023778;28;20041;-87
2023/08/07 08:45:28;;;;;;;3.20;0.85;;;14.80;1.00;;;;;;5025553;28;20140;-87
2023/08/07 08:48:02;;;;;;;2.40;0.17;;;15.40;1.00;;;;;;5042306;28;20048;-88
2023/08/07 08:50:28;;;;;;;16.20;1.65;;;15.30;99.90;;;;;;5041837;28;20382;-88
2023/08/07 08:52:56;;;;;;;0.88;0.60;;;15.70;99.90;;;;;;5043289;28;20048;-88
2023/08/07 08:55:23;;;;;;;0.10;0.10;;;16.70;99.90;;;;;;5041742;28;20048;-88
2023/08/07 08:57:50;;;;;;;0.17;0.10;;;16.20;99.90;;;;;;5041586;28;20044;-88
2023/08/07 09:00:20;;;;;;;1.13;1.02;;;17.10;99.90;;;;;;5045249;28;20040;-88
2023/08/07 09:02:48;;;;;;;0.20;0.20;;;17.50;99.90;;;;;;5046059;28;20059;-88
2023/08/07 09:05:20;;;;;;;1.48;0.65;;;17.90;99.90;;;;;;5029016;28;20574;-88
2023/08/07 09:07:46;;;;;;;4.13;0.28;;;18.20;99.90;;;;;;5045994;28;20045;-88
2023/08/07 09:10:13;;;;;;;4.20;1.65;;;18.60;94.20;;;;;;5045035;28;20823;-88
2023/08/07 09:12:57;;;;;;;0.50;0.20;;;19.10;34.00;;;;;;5027244;28;20526;-87
2023/08/07 09:15:24;;;;;;;0.45;0.43;;;19.40;1.00;;;;;;5035891;28;20450;-88
2023/08/07 09:17:52;;;;;;;0.00;0.00;;;19.40;99.90;;;;;;5043526;28;20132;-88
2023/08/07 09:20:19;;;;;;;0.65;0.52;;;19.70;99.90;;;;;;5043902;28;20056;-87
2023/08/07 09:22:45;;;;;;;0.63;0.45;;;19.70;99.90;;;;;;5043668;28;20055;-88
2023/08/07 09:25:10;;;;;;;0.00;0.00;;;20.20;99.90;;;;;;5045715;28;20037;-87
2023/08/07 09:27:40;;;;;;;0.10;0.10;;;20.10;89.40;;;;;;5046984;28;20394;-88
2023/08/07 09:30:09;;;;;;;0.63;0.52;;;20.90;64.40;;;;;;5045113;28;20133;-87
2023/08/07 09:32:36;;;;;;;0.10;0.10;;;20.20;20.50;;;;;;5045233;28;20071;-87
2023/08/07 09:35:06;;;;;;;0.25;0.25;;;21.10;52.00;;;;;;5044816;28;20052;-88
2023/08/07 09:37:32;;;;;;;0.00;0.00;;;21.30;13.90;;;;;;5044953;28;20057;-88
2023/08/07 09:40:00;;;;;;;7.32;0.65;;;21.60;36.90;;;;;;5046252;28;20037;-88
2023/08/07 09:42:31;;;;;;;0.52;0.52;;;21.90;11.00;;;;;;5044546;28;20060;-88
2023/08/07 09:44:58;;;;;;;0.22;0.22;;;21.70;1.00;;;;;;5027902;28;20033;-88
2023/08/07 09:47:23;;;;;;;0.00;0.00;;;21.80;1.00;;;;;;5028471;28;20040;-87
2023/08/07 09:49:54;;;;;;;0.13;0.13;;;22.40;1.00;;;;;;5043991;28;20426;-88
2023/08/07 09:52:20;;;;;;;0.20;0.20;;;22.20;99.90;;;;;;5028502;28;20128;-87
2023/08/07 09:54:46;;;;;;;1.23;0.73;;;21.70;99.90;;;;;;5046325;28;20578;-88
2023/08/07 09:57:13;;;;;;;0.28;0.20;;;20.50;99.90;;;;;;5044514;28;20033;-88
2023/08/07 09:59:39;;;;;;;1.17;0.60;;;20.20;99.90;;;;;;5027888;28;20056;-88
2023/08/07 10:02:06;;;;;;;0.10;0.10;;;19.80;99.90;;;;;;5044704;28;20072;-87
2023/08/07 10:04:32;;;;;;;0.28;0.20;;;20.30;99.90;;;;;;5044170;28;20053;-88
2023/08/07 10:06:59;;;;;;;0.73;0.65;;;20.10;99.90;;;;;;5045724;28;20045;-87
2023/08/07 10:09:27;;;;;;;0.47;0.30;;;20.50;99.90;;;;;;5044177;28;20045;-88
2023/08/07 10:11:54;;;;;;;0.38;0.25;;;20.50;99.90;;;;;;5044732;28;20080;-87
2023/08/07 10:14:20;;;;;;;0.30;0.30;;;20.20;99.90;;;;;;5044211;28;20385;-87
2023/08/07 10:16:46;;;;;;;0.90;0.32;;;20.00;99.90;;;;;;5045594;28;20379;-86
2023/08/07 10:19:12;;;;;;;0.00;0.00;;;19.60;99.90;;;;;;5043733;28;20049;-87
2023/08/07 10:21:42;;;;;;;0.30;0.20;;;19.60;99.90;;;;;;5044006;28;20047;-87
2023/08/07 10:24:10;;;;;;;0.30;0.22;;;19.60;99.90;;;;;;5044212;28;20408;-88
2023/08/07 10:26:41;;;;;;;1.50;0.40;;;19.60;99.90;;;;;;5043709;28;20059;-87
2023/08/07 10:29:10;;;;;;;0.70;0.63;;;19.40;99.90;;;;;;5043788;28;20048;-87
2023/08/07 10:31:38;;;;;;;0.93;0.68;;;19.80;99.90;;;;;;5043990;28;20049;-87
2023/08/07 10:34:04;;;;;;;0.00;0.00;;;19.10;99.90;;;;;;5043426;28;20495;-87
2023/08/07 10:36:34;;;;;;;0.30;0.30;;;19.30;99.90;;;;;;5043501;28;20084;-87
2023/08/07 10:39:11;;;;;;;1.00;0.43;;;19.40;99.90;;;;;;5043715;28;20483;-87
2023/08/07 10:41:42;;;;;;;0.60;0.25;;;19.80;99.90;;;;;;5045121;28;20675;-88
2023/08/07 10:44:19;;;;;;;0.10;0.10;;;19.50;99.90;;;;;;5043387;28;20056;-87
2023/08/07 10:46:54;;;;;;;0.40;0.30;;;19.20;99.90;;;;;;5045245;28;20091;-87
2023/08/07 10:49:33;;;;;;;0.60;0.60;;;18.80;99.90;;;;;;5043559;28;20128;-87
2023/08/07 10:52:01;;;;;;;0.00;0.00;;;18.70;99.90;;;;;;5045348;28;20044;-87
2023/08/07 10:54:27;;;;;;;0.25;0.25;;;18.90;99.90;;;;;;5044842;28;20051;-87
2023/08/07 10:56:54;;;;;;;0.10;0.10;;;19.30;99.90;;;;;;5043311;28;20037;-87
2023/08/07 10:59:20;;;;;;;0.00;0.00;;;19.70;99.90;;;;;;5043480;28;20063;-88
2023/08/07 11:01:51;;;;;;;0.25;0.13;;;20.20;99.90;;;;;;5044717;28;20379;-87
2023/08/07 11:04:17;;;;;;;0.73;0.25;;;20.20;99.90;;;;;;5026847;28;20040;-87
2023/08/07 11:06:46;;;;;;;0.00;0.00;;;19.60;99.90;;;;;;5043394;28;20136;-87
2023/08/07 11:09:12;;;;;;;0.20;0.15;;;19.20;99.90;;;;;;5044497;28;20483;-87
2023/08/07 11:11:46;;;;;;;0.00;0.00;;;19.10;99.90;;;;;;5043183;28;20041;-87
2023/08/07 11:14:19;;;;;;;0.00;0.00;;;19.20;99.90;;;;;;5026503;28;20118;-87
2023/08/07 11:16:47;;;;;;;2.10;0.52;;;19.30;99.90;;;;;;5042855;28;20128;-88
2023/08/07 11:19:19;;;;;;;1.38;1.10;;;19.70;99.90;;;;;;5042795;28;20522;-87
2023/08/07 11:21:45;;;;;;;0.47;0.20;;;20.00;99.90;;;;;;5042728;28;20068;-88
2023/08/07 11:24:13;;;;;;;0.77;0.73;;;19.70;99.90;;;;;;5025604;28;20044;-87
2023/08/07 11:26:39;;;;;;;0.82;0.57;;;19.70;99.90;;;;;;5044359;28;20332;-87
2023/08/07 11:29:05;;;;;;;0.08;0.08;;;19.50;99.90;;;;;;5042838;28;20573;-87
2023/08/07 11:31:30;;;;;;;0.00;0.00;;;20.40;99.90;;;;;;5044328;28;20120;-87
2023/08/07 11:33:58;;;;;;;1.25;0.65;;;20.60;99.90;;;;;;5026260;28;20071;-87
2023/08/07 11:36:24;;;;;;;0.73;0.35;;;20.40;99.90;;;;;;5042159;28;20124;-88
2023/08/07 11:38:50;;;;;;;1.08;0.65;;;19.60;99.90;;;;;;5043090;28;20037;-87
2023/08/07 11:41:17;;;;;;;1.33;0.70;;;18.90;99.90;;;;;;5044263;28;20128;-87
2023/08/07 11:43:43;;;;;;;0.00;0.00;;;19.10;99.90;;;;;;5042157;28;20447;-87
2023/08/07 11:46:11;;;;;;;0.00;0.00;;;19.30;99.90;;;;;;5042513;28;20053;-87
2023/08/07 11:48:38;;;;;;;7.22;0.45;;;19.30;99.90;;;;;;5042563;28;20036;-87
2023/08/07 11:51:05;;;;;;;0.38;0.20;;;19.00;99.90;;;;;;5044290;28;20101;-87
2023/08/07 11:53:33;;;;;;;2.30;1.17;;;19.20;99.90;;;;;;5042390;28;20070;-87
2023/08/07 11:56:09;;;;;;;0.10;0.10;;;19.10;99.90;;;;;;5043705;28;20495;-87
2023/08/07 11:58:37;;;;;;;0.17;0.17;;;19.30;99.90;;;;;;5044004;28;20049;-87
2023/08/07 12:01:05;;;;;;;2.08;0.70;;;19.30;99.90;;;;;;5042645;28;20068;-87
2023/08/07 12:03:39;;;;;;;0.70;0.10;;;18.50;99.90;;;;;;5043793;28;20049;-87
2023/08/07 12:06:06;;;;;;;1.05;0.82;;;18.20;99.90;;;;;;5043652;28;20124;-87
2023/08/07 12:08:42;;;;;;;0.10;0.10;;;18.10;99.90;;;;;;5042209;28;20045;-87
2023/08/07 12:11:12;;;;;;;0.98;0.55;;;17.80;1.00;;;;;;5043431;28;20084;-86
2023/08/07 12:13:42;;;;;;;0.25;0.13;;;16.80;99.90;;;;;;5041991;28;20456;-87
2023/08/07 12:16:09;;;;;;;0.47;0.47;;;16.30;99.80;;;;;;5041991;28;20060;-87
2023/08/07 12:18:37;;;;;;;0.65;0.25;;;15.90;99.90;;;;;;5025009;28;20448;-86
2023/08/07 12:21:06;;;;;;;0.13;0.10;;;16.10;99.90;;;;;;5043367;28;20122;-87
2023/08/07 12:23:33;;;;;;;0.00;0.00;;;16.50;99.90;;;;;;5043549;28;20051;-87
2023/08/07 12:25:59;;;;;;;0.10;0.10;;;16.60;99.90;;;;;;5041584;28;20076;-87
2023/08/07 12:28:25;;;;;;;0.10;0.10;;;16.40;99.90;;;;;;5041526;28;20518;-86
2023/08/07 12:30:51;;;;;;;0.25;0.20;;;16.10;99.90;;;;;;5041487;28;20394;-86
2023/08/07 12:33:18;;;;;;;0.10;0.10;;;15.20;1.00;;;;;;5041441;28;20044;-88
2023/08/07 12:35:43;;;;;;;0.00;0.00;;;14.20;99.90;;;;;;5041888;28;20584;-87
2023/08/07 12:38:10;;;;;;;0.00;0.00;;;13.70;99.90;;;;;;5044971;28;20041;-89
2023/08/07 12:40:38;;;;;;;0.00;0.00;;;13.30;99.90;;;;;;5043401;28;20037;-89
2023/08/07 12:43:04;;;;;;;0.55;0.32;;;13.40;99.90;;;;;;5042556;28;20052;-89
2023/08/07 12:45:31;;;;;;;3.10;0.57;;;13.90;99.90;;;;;;5025923;28;20102;-89